Time;durP1;ratioP1;P1;durP2;ratioP2;P2;SDS_P1;SDS_P2;PMS_P1;PMS_P2;Temp;Humidity;BMP_temperature;BMP_pressure;BME280_temperature;BME280_humidity;BME280_pressure;Samples;Min_cycle;Max_cycle;Signal;HPM_P1;HPM_P2
2023/06/25 00:01:46;;;;;;;6.40;5.80;;;25.60;52.50;;;;;;5052389;28;20425;-67
2023/06/25 00:04:11;;;;;;;7.87;7.17;;;25.60;52.50;;;;;;5052063;28;20182;-68
2023/06/25 00:06:37;;;;;;;6.50;5.90;;;25.60;52.50;;;;;;5051961;28;20604;-67
2023/06/25 00:09:03;;;;;;;8.83;6.43;;;25.60;52.50;;;;;;5052303;28;20186;-68
2023/06/25 00:11:28;;;;;;;9.00;7.03;;;25.60;52.50;;;;;;5052004;28;20166;-67
2023/06/25 00:13:54;;;;;;;7.10;6.40;;;25.60;52.50;;;;;;5051943;28;20304;-67
2023/06/25 00:16:19;;;;;;;6.13;5.63;;;25.60;52.50;;;;;;5051872;28;20198;-68
2023/06/25 00:18:47;;;;;;;7.23;6.53;;;25.60;52.50;;;;;;5052048;28;20276;-67
2023/06/25 00:21:13;;;;;;;7.30;6.50;;;25.60;52.50;;;;;;5051841;28;20194;-67
2023/06/25 00:23:39;;;;;;;10.40;6.93;;;25.60;52.60;;;;;;5051840;28;20418;-67
2023/06/25 00:26:04;;;;;;;6.73;6.13;;;25.60;52.50;;;;;;5051710;28;20432;-67
2023/06/25 00:28:30;;;;;;;6.53;5.83;;;25.60;52.50;;;;;;5051749;28;20174;-68
2023/06/25 00:30:55;;;;;;;7.70;6.53;;;25.60;52.50;;;;;;5051780;28;20178;-67
2023/06/25 00:33:21;;;;;;;6.63;6.00;;;25.60;52.50;;;;;;5051740;28;20245;-68
2023/06/25 00:35:50;;;;;;;8.13;6.80;;;25.60;52.60;;;;;;5051612;28;20199;-68
2023/06/25 00:38:16;;;;;;;6.57;5.97;;;25.60;52.50;;;;;;5051596;28;20282;-66
2023/06/25 00:40:42;;;;;;;6.50;5.90;;;25.60;52.60;;;;;;5051632;28;20772;-66
2023/06/25 00:43:07;;;;;;;7.50;6.80;;;25.60;52.50;;;;;;5050289;28;20882;-67
2023/06/25 00:45:34;;;;;;;6.10;5.50;;;25.60;52.60;;;;;;5051776;28;20483;-67
2023/06/25 00:48:01;;;;;;;6.80;6.20;;;25.60;52.60;;;;;;5050333;28;20175;-66
2023/06/25 00:50:27;;;;;;;6.27;5.70;;;25.60;52.60;;;;;;5055708;28;20946;-68
2023/06/25 00:52:52;;;;;;;6.17;5.57;;;25.60;52.60;;;;;;5055527;28;20410;-67
2023/06/25 00:55:19;;;;;;;6.53;5.67;;;25.60;52.60;;;;;;5055685;28;20306;-67
2023/06/25 00:57:45;;;;;;;6.47;5.77;;;25.60;52.60;;;;;;5055609;28;20210;-68
2023/06/25 01:00:14;;;;;;;6.37;5.80;;;25.60;52.60;;;;;;5055437;28;20412;-68
2023/06/25 01:02:46;;;;;;;5.50;5.00;;;25.60;52.60;;;;;;5055335;28;20450;-68
2023/06/25 01:05:22;;;;;;;6.10;5.50;;;25.60;52.60;;;;;;5055235;28;20433;-67
2023/06/25 01:07:50;;;;;;;6.50;5.90;;;25.60;52.60;;;;;;5055281;28;20389;-67
2023/06/25 01:10:16;;;;;;;6.80;6.10;;;25.60;52.60;;;;;;5055512;28;20906;-67
2023/06/25 01:12:42;;;;;;;6.33;5.73;;;25.60;52.60;;;;;;5055181;28;20496;-67
2023/06/25 01:15:11;;;;;;;6.73;5.57;;;25.60;52.60;;;;;;5055063;28;20195;-67
2023/06/25 01:17:39;;;;;;;6.27;5.60;;;25.60;52.60;;;;;;5054986;28;20405;-67
2023/06/25 01:20:06;;;;;;;6.87;5.80;;;25.60;52.60;;;;;;5055092;28;20406;-66
2023/06/25 01:22:33;;;;;;;6.37;5.73;;;25.60;52.60;;;;;;5055325;28;20775;-68
2023/06/25 01:24:59;;;;;;;6.73;5.50;;;25.60;52.60;;;;;;5054864;28;20406;-68
2023/06/25 01:27:25;;;;;;;6.23;5.50;;;25.60;52.60;;;;;;5054871;28;20167;-67
2023/06/25 01:29:51;;;;;;;5.83;5.33;;;25.60;52.60;;;;;;5054900;28;20498;-67
2023/06/25 01:32:18;;;;;;;6.80;5.53;;;25.60;52.60;;;;;;5054809;28;20500;-68
2023/06/25 01:34:44;;;;;;;6.20;5.60;;;25.60;52.70;;;;;;5054763;28;20212;-67
2023/06/25 01:37:11;;;;;;;7.07;6.27;;;25.60;52.70;;;;;;5055036;28;20451;-67
2023/06/25 01:39:37;;;;;;;5.23;4.70;;;25.60;52.60;;;;;;5054621;28;20502;-67
2023/06/25 01:42:03;;;;;;;6.73;6.03;;;25.60;52.70;;;;;;5055024;28;20492;-67
2023/06/25 01:44:31;;;;;;;5.23;4.73;;;25.60;52.70;;;;;;5054622;28;20408;-67
2023/06/25 01:46:58;;;;;;;5.87;5.27;;;25.60;52.70;;;;;;5054726;28;20432;-67
2023/06/25 01:49:24;;;;;;;6.30;5.07;;;25.60;52.70;;;;;;5054675;28;20980;-67
2023/06/25 01:51:50;;;;;;;7.57;5.83;;;25.60;52.70;;;;;;5054600;28;20424;-67
2023/06/25 01:54:16;;;;;;;6.33;5.73;;;25.60;52.70;;;;;;5054446;28;20420;-67
2023/06/25 01:56:42;;;;;;;6.30;5.70;;;25.60;52.70;;;;;;5054608;28;20934;-66
2023/06/25 01:59:08;;;;;;;6.30;5.80;;;25.60;52.70;;;;;;5054226;28;20221;-67
2023/06/25 02:01:34;;;;;;;5.50;5.00;;;25.60;52.70;;;;;;5053162;28;20942;-68
2023/06/25 02:03:59;;;;;;;5.40;4.90;;;25.60;52.70;;;;;;5054499;28;20182;-67
2023/06/25 02:06:25;;;;;;;7.53;5.73;;;25.60;52.70;;;;;;5054399;28;20564;-67
2023/06/25 02:08:51;;;;;;;5.53;5.03;;;25.50;52.70;;;;;;5054172;28;20234;-67
2023/06/25 02:11:16;;;;;;;5.87;5.30;;;25.50;52.70;;;;;;5054147;28;20172;-67
2023/06/25 02:13:42;;;;;;;5.80;5.30;;;25.50;52.70;;;;;;5054006;28;20183;-68
2023/06/25 02:16:07;;;;;;;5.83;5.30;;;25.60;52.70;;;;;;5054227;28;20240;-67
2023/06/25 02:18:33;;;;;;;5.70;5.20;;;25.50;52.70;;;;;;5053892;28;20199;-67
2023/06/25 02:20:59;;;;;;;6.87;6.17;;;25.60;52.70;;;;;;5054149;28;20179;-67
2023/06/25 02:23:24;;;;;;;6.10;5.57;;;25.50;52.70;;;;;;5053866;28;20675;-67
2023/06/25 02:25:50;;;;;;;5.60;5.10;;;25.50;52.70;;;;;;5054018;28;20199;-68
2023/06/25 02:28:16;;;;;;;5.80;5.30;;;25.50;52.70;;;;;;5053744;28;20652;-67
2023/06/25 02:30:42;;;;;;;5.33;4.93;;;25.50;52.70;;;;;;5053749;28;20179;-68
2023/06/25 02:33:08;;;;;;;7.80;5.30;;;25.50;52.70;;;;;;5053721;28;20417;-67
2023/06/25 02:35:34;;;;;;;5.67;5.10;;;25.50;52.70;;;;;;5053579;28;20439;-67
2023/06/25 02:37:59;;;;;;;5.43;4.80;;;25.50;52.70;;;;;;5053529;28;20249;-68
2023/06/25 02:40:27;;;;;;;8.80;5.60;;;25.50;52.70;;;;;;5053550;28;20175;-68
2023/06/25 02:42:53;;;;;;;5.47;4.80;;;25.50;52.70;;;;;;5053561;28;20175;-67
2023/06/25 02:45:19;;;;;;;4.57;4.17;;;25.50;52.70;;;;;;5053389;28;20456;-67
2023/06/25 02:47:44;;;;;;;5.80;5.30;;;25.50;52.70;;;;;;5053408;28;20500;-67
2023/06/25 02:50:10;;;;;;;6.93;5.43;;;25.50;52.70;;;;;;5053205;28;20197;-68
2023/06/25 02:52:35;;;;;;;5.83;4.70;;;25.50;52.70;;;;;;5053304;28;20643;-66
2023/06/25 02:55:01;;;;;;;5.63;5.10;;;25.50;52.70;;;;;;5053172;28;20202;-68
2023/06/25 02:57:29;;;;;;;5.77;5.27;;;25.50;52.70;;;;;;5053118;28;20183;-68
2023/06/25 02:59:55;;;;;;;6.67;5.57;;;25.50;52.70;;;;;;5053397;28;20209;-68
2023/06/25 03:02:21;;;;;;;6.37;5.07;;;25.50;52.70;;;;;;5053332;28;20405;-68
2023/06/25 03:04:46;;;;;;;5.43;4.93;;;25.50;52.70;;;;;;5052989;28;20490;-68
2023/06/25 03:07:12;;;;;;;5.80;5.30;;;25.50;52.70;;;;;;5053017;28;20197;-68
2023/06/25 03:09:38;;;;;;;5.80;5.30;;;25.50;52.70;;;;;;5053012;28;20629;-68
2023/06/25 03:12:04;;;;;;;5.43;4.90;;;25.50;52.70;;;;;;5052678;28;20356;-68
2023/06/25 03:14:30;;;;;;;5.40;4.90;;;25.50;52.70;;;;;;5052905;28;20166;-68
2023/06/25 03:16:55;;;;;;;6.40;5.60;;;25.50;52.70;;;;;;5053006;28;20429;-68
2023/06/25 03:19:21;;;;;;;5.93;5.43;;;25.50;52.70;;;;;;5053001;28;20248;-68
2023/06/25 03:21:47;;;;;;;6.70;6.10;;;25.50;52.80;;;;;;5052790;28;20569;-68
2023/06/25 03:24:13;;;;;;;5.77;5.27;;;25.50;52.70;;;;;;5053009;28;20171;-68
2023/06/25 03:26:38;;;;;;;6.20;5.60;;;25.50;52.70;;;;;;5052647;28;20429;-68
2023/06/25 03:29:04;;;;;;;6.23;5.73;;;25.50;52.80;;;;;;5052605;28;20648;-68
2023/06/25 03:31:29;;;;;;;5.60;5.10;;;25.40;52.70;;;;;;5052589;28;20175;-68
2023/06/25 03:33:55;;;;;;;5.80;5.30;;;25.40;52.70;;;;;;5052857;28;20175;-68
2023/06/25 03:36:21;;;;;;;6.10;5.60;;;25.40;52.70;;;;;;5052456;28;20219;-68
2023/06/25 03:38:47;;;;;;;6.13;5.60;;;25.40;52.80;;;;;;5052420;28;20667;-68
2023/06/25 03:41:12;;;;;;;5.57;5.07;;;25.40;52.80;;;;;;5052384;28;20408;-68
2023/06/25 03:43:38;;;;;;;6.30;5.80;;;25.40;52.80;;;;;;5052390;28;20175;-68
2023/06/25 03:46:03;;;;;;;6.93;5.20;;;25.40;52.80;;;;;;5052494;28;20215;-68
2023/06/25 03:48:29;;;;;;;6.80;5.50;;;25.40;52.80;;;;;;5052292;28;20187;-68
2023/06/25 03:50:55;;;;;;;6.30;5.70;;;25.40;52.90;;;;;;5052119;28;20237;-68
2023/06/25 03:53:21;;;;;;;6.80;6.20;;;25.40;53.40;;;;;;5052238;28;20261;-68
2023/06/25 03:55:47;;;;;;;6.20;5.60;;;25.40;52.80;;;;;;5052178;28;20226;-68
2023/06/25 03:58:12;;;;;;;6.37;5.77;;;25.40;52.80;;;;;;5052405;28;20481;-67
2023/06/25 04:00:38;;;;;;;6.43;5.87;;;25.40;52.80;;;;;;5052176;28;20678;-68
2023/06/25 04:03:03;;;;;;;8.93;6.13;;;25.40;52.70;;;;;;5052089;28;20663;-68
2023/06/25 04:05:29;;;;;;;5.97;5.47;;;25.40;52.80;;;;;;5051973;28;20211;-67
2023/06/25 04:07:55;;;;;;;6.27;5.33;;;25.30;52.70;;;;;;5052006;28;20224;-68
2023/06/25 04:10:20;;;;;;;5.93;5.27;;;25.30;52.80;;;;;;5052035;28;20197;-68
2023/06/25 04:12:46;;;;;;;5.87;5.30;;;25.30;52.70;;;;;;5052017;28;20175;-68
2023/06/25 04:15:11;;;;;;;6.17;5.57;;;25.30;52.70;;;;;;5050909;28;20617;-68
2023/06/25 04:17:39;;;;;;;5.93;5.37;;;25.40;52.70;;;;;;5052100;28;20171;-67
2023/06/25 04:20:05;;;;;;;6.00;5.50;;;25.30;52.70;;;;;;5051904;28;20584;-68
2023/06/25 04:22:31;;;;;;;6.40;5.80;;;25.30;52.70;;;;;;5051589;28;20397;-67
2023/06/25 04:24:57;;;;;;;6.17;5.67;;;25.30;52.70;;;;;;5051317;28;20488;-67
2023/06/25 04:27:22;;;;;;;6.77;6.20;;;25.30;52.80;;;;;;5051787;28;20163;-69
2023/06/25 04:29:48;;;;;;;6.13;5.53;;;25.30;52.80;;;;;;5051820;28;20179;-67
2023/06/25 04:32:13;;;;;;;6.17;5.50;;;25.30;52.80;;;;;;5050491;28;20596;-67
2023/06/25 04:34:39;;;;;;;6.43;5.83;;;25.30;52.80;;;;;;5051726;28;20175;-67
2023/06/25 04:37:05;;;;;;;6.60;5.93;;;25.30;52.80;;;;;;5051883;28;20191;-67
2023/06/25 04:39:30;;;;;;;6.37;5.77;;;25.20;52.80;;;;;;5051635;28;20191;-67
2023/06/25 04:41:56;;;;;;;6.37;5.80;;;25.20;52.80;;;;;;5051689;28;20183;-68
2023/06/25 04:44:22;;;;;;;6.23;5.07;;;25.20;52.80;;;;;;5050368;28;20553;-67
2023/06/25 04:46:47;;;;;;;7.00;5.30;;;25.20;52.80;;;;;;5051592;28;20197;-68
2023/06/25 04:49:13;;;;;;;6.13;5.53;;;25.20;52.80;;;;;;5051429;28;20175;-68
2023/06/25 04:51:39;;;;;;;5.87;5.37;;;25.20;52.80;;;;;;5051628;28;20181;-68
2023/06/25 04:54:04;;;;;;;8.13;5.50;;;25.20;52.80;;;;;;5051509;28;20780;-68
2023/06/25 04:56:30;;;;;;;6.90;6.20;;;25.20;52.80;;;;;;5051488;28;20191;-67
2023/06/25 04:58:55;;;;;;;8.00;6.27;;;25.20;52.70;;;;;;5051710;28;20206;-67
2023/06/25 05:01:23;;;;;;;6.50;5.33;;;25.30;52.80;;;;;;5051529;28;20536;-67
2023/06/25 05:03:48;;;;;;;6.67;6.07;;;25.30;52.70;;;;;;5051499;28;20166;-69
2023/06/25 05:06:14;;;;;;;6.27;5.67;;;25.30;52.80;;;;;;5051418;28;20926;-68
2023/06/25 05:08:40;;;;;;;6.30;5.70;;;25.30;52.70;;;;;;5051423;28;20167;-68
2023/06/25 05:11:05;;;;;;;6.60;6.00;;;25.30;52.80;;;;;;5051439;28;20179;-68
2023/06/25 05:13:31;;;;;;;7.10;5.23;;;25.30;52.80;;;;;;5051384;28;20519;-68
2023/06/25 05:15:57;;;;;;;6.20;5.60;;;25.30;52.80;;;;;;5049990;28;20298;-68
2023/06/25 05:18:22;;;;;;;5.97;5.37;;;25.30;52.80;;;;;;5051327;28;20667;-67
2023/06/25 05:20:48;;;;;;;6.07;5.47;;;25.30;52.80;;;;;;5051312;28;20401;-68
2023/06/25 05:23:14;;;;;;;9.13;5.90;;;25.30;52.80;;;;;;5051311;28;20254;-68
2023/06/25 05:25:39;;;;;;;5.80;5.20;;;25.30;52.80;;;;;;5051208;28;20278;-68
2023/06/25 05:28:05;;;;;;;6.40;5.20;;;25.30;52.80;;;;;;5051560;28;20186;-67
2023/06/25 05:30:32;;;;;;;5.83;5.10;;;25.30;52.80;;;;;;5051263;28;20544;-68
2023/06/25 05:32:57;;;;;;;5.47;4.93;;;25.30;52.80;;;;;;5050981;28;20406;-68
2023/06/25 05:35:23;;;;;;;6.20;5.60;;;25.30;52.80;;;;;;5053218;28;20433;-68
2023/06/25 05:37:49;;;;;;;11.53;5.83;;;25.30;52.80;;;;;;5054676;28;20408;-67
2023/06/25 05:40:15;;;;;;;5.83;5.33;;;25.30;52.90;;;;;;5054752;28;20175;-67
2023/06/25 05:42:41;;;;;;;7.60;4.80;;;25.30;52.80;;;;;;5054721;28;20163;-69
2023/06/25 05:45:08;;;;;;;5.53;5.03;;;25.30;52.90;;;;;;5054580;28;20187;-68
2023/06/25 05:47:33;;;;;;;6.13;5.53;;;25.30;52.90;;;;;;5054558;28;20785;-68
2023/06/25 05:49:59;;;;;;;5.70;5.20;;;25.30;52.90;;;;;;5053207;28;20447;-68
2023/06/25 05:52:25;;;;;;;6.83;4.93;;;25.30;52.90;;;;;;5054480;28;20167;-69
2023/06/25 05:54:50;;;;;;;6.13;5.53;;;25.30;52.90;;;;;;5054401;28;20569;-68
2023/06/25 05:57:16;;;;;;;6.53;5.93;;;25.30;52.90;;;;;;5053416;28;20171;-68
2023/06/25 05:59:41;;;;;;;5.83;5.27;;;25.30;52.90;;;;;;5053023;28;20572;-68
2023/06/25 06:02:10;;;;;;;5.60;5.20;;;25.30;52.90;;;;;;5054323;28;20168;-69
2023/06/25 06:04:36;;;;;;;6.10;5.20;;;25.30;52.90;;;;;;5054272;28;20171;-68
2023/06/25 06:07:02;;;;;;;6.13;5.13;;;25.30;52.90;;;;;;5054403;28;20428;-68
2023/06/25 06:09:28;;;;;;;5.53;5.03;;;25.30;52.90;;;;;;5054194;28;20213;-68
2023/06/25 06:11:53;;;;;;;6.70;5.17;;;25.40;53.00;;;;;;5054225;28;20642;-67
2023/06/25 06:14:19;;;;;;;6.97;5.40;;;25.40;53.00;;;;;;5054077;28;20413;-68
2023/06/25 06:16:44;;;;;;;7.20;4.90;;;25.40;53.00;;;;;;5053237;28;20199;-68
2023/06/25 06:19:10;;;;;;;5.40;4.90;;;25.40;53.00;;;;;;5053463;28;20195;-68
2023/06/25 06:21:36;;;;;;;6.70;5.90;;;25.40;53.00;;;;;;5053932;28;20175;-68
2023/06/25 06:24:01;;;;;;;5.77;5.27;;;25.40;53.00;;;;;;5053865;28;20175;-69
2023/06/25 06:26:27;;;;;;;6.20;5.63;;;25.40;52.90;;;;;;5053832;28;20194;-68
2023/06/25 06:28:53;;;;;;;6.50;5.63;;;25.40;52.90;;;;;;5054047;28;20167;-68
2023/06/25 06:31:20;;;;;;;6.33;5.73;;;25.40;52.90;;;;;;5053710;28;20273;-68
2023/06/25 06:33:45;;;;;;;4.87;4.43;;;25.40;52.90;;;;;;5053985;28;20826;-68
2023/06/25 06:36:12;;;;;;;6.10;5.50;;;25.40;52.90;;;;;;5053607;28;20465;-68
2023/06/25 06:38:38;;;;;;;5.90;5.40;;;25.40;53.20;;;;;;5053567;28;20286;-66
2023/06/25 06:41:04;;;;;;;7.03;5.47;;;25.40;52.90;;;;;;5053489;28;20433;-67
2023/06/25 06:43:30;;;;;;;6.00;5.40;;;25.40;52.90;;;;;;5053712;28;20179;-67
2023/06/25 06:45:56;;;;;;;5.50;4.80;;;25.40;52.90;;;;;;5053013;28;20187;-66
2023/06/25 06:48:21;;;;;;;6.00;5.40;;;25.40;53.00;;;;;;5053384;28;20962;-68
2023/06/25 06:50:47;;;;;;;6.40;5.30;;;25.40;53.00;;;;;;5053471;28;20190;-67
2023/06/25 06:53:13;;;;;;;5.87;5.23;;;25.40;53.00;;;;;;5053365;28;20229;-64
2023/06/25 06:55:38;;;;;;;5.10;4.60;;;25.40;53.00;;;;;;5052070;28;20437;-65
2023/06/25 06:58:04;;;;;;;5.53;5.03;;;25.40;53.00;;;;;;5053213;28;20226;-66
2023/06/25 07:00:30;;;;;;;6.03;5.43;;;25.40;53.00;;;;;;5053218;28;20250;-65
2023/06/25 07:02:59;;;;;;;5.90;5.40;;;25.40;53.00;;;;;;5053402;28;20272;-67
2023/06/25 07:05:24;;;;;;;6.10;5.10;;;25.40;53.00;;;;;;5052992;28;20432;-66
2023/06/25 07:07:50;;;;;;;5.90;5.03;;;25.40;53.00;;;;;;5053062;28;20409;-67
2023/06/25 07:10:15;;;;;;;5.57;5.07;;;25.40;53.00;;;;;;5052981;28;20171;-67
2023/06/25 07:12:41;;;;;;;7.40;4.53;;;25.40;53.00;;;;;;5052946;28;20718;-67
2023/06/25 07:15:07;;;;;;;5.30;4.80;;;25.50;53.10;;;;;;5052890;28;20187;-66
2023/06/25 07:17:32;;;;;;;5.83;5.30;;;25.50;53.00;;;;;;5053127;28;20578;-66
2023/06/25 07:19:58;;;;;;;6.10;5.60;;;25.50;53.00;;;;;;5052744;28;20210;-66
2023/06/25 07:22:24;;;;;;;5.37;4.77;;;25.50;53.00;;;;;;5052852;28;20632;-67
2023/06/25 07:24:49;;;;;;;5.17;4.73;;;25.50;53.00;;;;;;5052687;28;20172;-66
2023/06/25 07:27:15;;;;;;;5.17;4.43;;;25.50;53.00;;;;;;5052636;28;20185;-65
2023/06/25 07:29:40;;;;;;;5.37;4.87;;;25.50;52.90;;;;;;5052869;28;20175;-68
2023/06/25 07:32:06;;;;;;;5.03;4.53;;;25.50;52.90;;;;;;5051639;28;20183;-65
2023/06/25 07:34:32;;;;;;;5.20;4.70;;;25.50;52.90;;;;;;5052539;28;20667;-65
2023/06/25 07:36:58;;;;;;;4.70;4.30;;;25.50;52.80;;;;;;5052392;28;20429;-66
2023/06/25 07:39:29;;;;;;;5.40;4.90;;;25.50;52.80;;;;;;5052418;28;20234;-65
2023/06/25 07:41:56;;;;;;;4.90;4.37;;;25.50;52.80;;;;;;5052440;28;20151;-66
2023/06/25 07:44:21;;;;;;;5.73;5.23;;;25.50;52.90;;;;;;5052345;28;20413;-66
2023/06/25 07:46:47;;;;;;;5.20;4.70;;;25.50;52.90;;;;;;5052253;28;20949;-65
2023/06/25 07:49:13;;;;;;;6.20;5.57;;;25.50;52.90;;;;;;5051170;28;20266;-68
2023/06/25 07:51:38;;;;;;;4.80;4.33;;;25.50;52.90;;;;;;5052315;28;20167;-67
2023/06/25 07:54:04;;;;;;;5.30;4.80;;;25.50;52.90;;;;;;5051945;28;20186;-66
2023/06/25 07:56:29;;;;;;;5.03;4.53;;;25.50;52.90;;;;;;5052127;28;20230;-65
2023/06/25 07:58:55;;;;;;;4.60;4.20;;;25.50;52.90;;;;;;5051131;28;20285;-68
2023/06/25 08:01:20;;;;;;;5.00;4.30;;;25.50;52.90;;;;;;5052170;28;20179;-66
2023/06/25 08:03:46;;;;;;;5.13;4.60;;;25.50;52.90;;;;;;5052050;28;20210;-66
2023/06/25 08:06:12;;;;;;;4.70;4.27;;;25.50;52.90;;;;;;5052012;28;20198;-68
2023/06/25 08:08:38;;;;;;;4.97;4.47;;;25.50;52.90;;;;;;5052023;28;20189;-67
2023/06/25 08:11:03;;;;;;;4.50;4.10;;;25.50;52.90;;;;;;5050995;28;20273;-67
2023/06/25 08:13:29;;;;;;;5.13;4.63;;;25.50;52.90;;;;;;5051936;28;20232;-67
2023/06/25 08:15:54;;;;;;;5.23;4.73;;;25.50;52.90;;;;;;5051843;28;20194;-66
2023/06/25 08:18:20;;;;;;;4.70;4.30;;;25.50;53.40;;;;;;5051813;28;20201;-68
2023/06/25 08:20:46;;;;;;;4.57;4.13;;;25.50;52.80;;;;;;5051814;28;20179;-66
2023/06/25 08:23:12;;;;;;;4.93;4.43;;;25.50;52.80;;;;;;5051772;28;20179;-66
2023/06/25 08:25:38;;;;;;;5.90;4.20;;;25.50;52.80;;;;;;5051701;28;20237;-66
2023/06/25 08:28:03;;;;;;;4.60;4.20;;;25.50;52.80;;;;;;5051800;28;20210;-67
2023/06/25 08:30:29;;;;;;;3.97;3.60;;;25.50;52.80;;;;;;5052025;28;20464;-65
2023/06/25 08:32:55;;;;;;;4.47;4.07;;;25.50;52.80;;;;;;5051785;28;20175;-65
2023/06/25 08:35:20;;;;;;;4.63;4.23;;;25.50;52.80;;;;;;5051655;28;20199;-64
2023/06/25 08:37:46;;;;;;;4.40;4.00;;;25.50;52.80;;;;;;5050351;28;20214;-66
2023/06/25 08:40:12;;;;;;;5.40;4.90;;;25.60;52.90;;;;;;5051658;28;20178;-66
2023/06/25 08:42:41;;;;;;;5.33;4.83;;;25.50;52.80;;;;;;5051751;28;20659;-66
2023/06/25 08:45:08;;;;;;;4.90;4.50;;;25.60;52.90;;;;;;5051913;28;20441;-66
2023/06/25 08:47:38;;;;;;;4.73;4.33;;;25.50;52.80;;;;;;5051889;28;20425;-67
2023/06/25 08:50:06;;;;;;;4.53;4.13;;;25.60;52.90;;;;;;5052006;28;20430;-67
2023/06/25 08:52:33;;;;;;;5.27;4.77;;;25.60;52.80;;;;;;5051778;28;20409;-67
2023/06/25 08:54:59;;;;;;;5.17;4.77;;;25.60;52.80;;;;;;5051756;28;20766;-67
2023/06/25 08:57:25;;;;;;;5.40;4.67;;;25.60;52.90;;;;;;5051690;28;20449;-67
2023/06/25 08:59:51;;;;;;;5.03;4.53;;;25.60;52.90;;;;;;5051748;28;20502;-67
2023/06/25 09:02:16;;;;;;;5.27;4.80;;;25.50;52.80;;;;;;5052138;28;20216;-67
2023/06/25 09:04:43;;;;;;;4.20;3.90;;;25.60;52.80;;;;;;5051845;28;20246;-66
2023/06/25 09:07:16;;;;;;;4.97;4.47;;;25.60;52.80;;;;;;5050476;28;20186;-67
2023/06/25 09:09:51;;;;;;;4.20;3.83;;;25.60;52.80;;;;;;5053106;28;20455;-69
2023/06/25 09:12:23;;;;;;;4.67;4.27;;;25.60;52.80;;;;;;5055310;28;20450;-67
2023/06/25 09:14:49;;;;;;;4.13;3.73;;;25.60;52.80;;;;;;5055208;28;20476;-66
2023/06/25 09:17:23;;;;;;;4.70;4.30;;;25.60;52.80;;;;;;5054142;28;20930;-67
2023/06/25 09:19:48;;;;;;;5.17;4.60;;;25.60;52.90;;;;;;5055286;28;20477;-67
2023/06/25 09:22:14;;;;;;;5.40;4.90;;;25.60;52.80;;;;;;5055495;28;20951;-66
2023/06/25 09:24:58;;;;;;;4.27;3.97;;;25.60;52.80;;;;;;5055018;28;20285;-65
2023/06/25 09:27:24;;;;;;;4.40;4.00;;;25.60;52.80;;;;;;5054993;28;20274;-67
2023/06/25 09:29:49;;;;;;;4.40;4.00;;;25.60;52.80;;;;;;5054910;28;20559;-66
2023/06/25 09:32:17;;;;;;;4.80;4.20;;;25.60;52.80;;;;;;5054855;28;20289;-67
2023/06/25 09:34:45;;;;;;;4.43;4.03;;;25.60;52.80;;;;;;5054879;28;20179;-66
2023/06/25 09:37:11;;;;;;;4.50;4.07;;;25.60;52.80;;;;;;5054845;28;20405;-66
2023/06/25 09:39:37;;;;;;;4.57;4.17;;;25.60;52.80;;;;;;5054650;28;20463;-66
2023/06/25 09:42:04;;;;;;;4.97;4.57;;;25.60;52.80;;;;;;5054696;28;20175;-66
2023/06/25 09:44:31;;;;;;;4.40;4.00;;;25.60;52.80;;;;;;5054604;28;20179;-66
2023/06/25 09:47:06;;;;;;;5.27;4.77;;;25.60;52.80;;;;;;5054775;28;20437;-66
2023/06/25 09:49:32;;;;;;;4.53;4.10;;;25.60;52.70;;;;;;5054344;28;20436;-65
2023/06/25 09:52:08;;;;;;;5.33;4.87;;;25.60;52.70;;;;;;5054427;28;20421;-66
2023/06/25 09:54:37;;;;;;;4.73;4.23;;;25.60;52.70;;;;;;5054703;28;20831;-65
2023/06/25 09:57:05;;;;;;;4.57;4.17;;;25.60;52.70;;;;;;5054268;28;20441;-64
2023/06/25 09:59:31;;;;;;;5.17;4.77;;;25.60;52.70;;;;;;5052993;28;21056;-66
2023/06/25 10:01:57;;;;;;;3.60;3.30;;;25.60;52.70;;;;;;5054343;28;20504;-65
2023/06/25 10:04:23;;;;;;;4.83;4.33;;;25.60;52.70;;;;;;5054210;28;20206;-65
2023/06/25 10:06:49;;;;;;;4.60;4.20;;;25.60;52.70;;;;;;5054433;28;20230;-66
2023/06/25 10:09:15;;;;;;;4.30;3.90;;;25.60;52.70;;;;;;5054120;28;20671;-65
2023/06/25 10:11:57;;;;;;;5.07;4.57;;;25.60;52.70;;;;;;5054175;28;20409;-64
2023/06/25 10:14:23;;;;;;;4.37;3.97;;;25.70;52.70;;;;;;5054152;28;20167;-67
2023/06/25 10:16:53;;;;;;;3.83;3.53;;;25.60;52.70;;;;;;5053942;28;20438;-65
2023/06/25 10:19:23;;;;;;;3.97;3.67;;;25.70;52.70;;;;;;5052656;28;20465;-65
2023/06/25 10:22:07;;;;;;;4.60;4.13;;;25.70;52.70;;;;;;5052902;28;20414;-66
2023/06/25 10:24:40;;;;;;;5.40;4.80;;;25.70;52.70;;;;;;5054138;28;20486;-65
2023/06/25 10:27:06;;;;;;;4.33;3.93;;;25.70;52.70;;;;;;5053916;28;20457;-67
2023/06/25 10:29:42;;;;;;;4.60;4.20;;;25.60;52.60;;;;;;5053722;28;20514;-64
2023/06/25 10:32:07;;;;;;;4.87;4.47;;;25.70;52.70;;;;;;5053644;28;20177;-65
2023/06/25 10:34:37;;;;;;;4.33;3.93;;;25.70;52.60;;;;;;5053622;28;20910;-64
2023/06/25 10:37:07;;;;;;;5.60;4.30;;;25.70;52.60;;;;;;5053795;28;20202;-64
2023/06/25 10:39:39;;;;;;;4.00;3.70;;;25.70;52.60;;;;;;5053426;28;20461;-65
2023/06/25 10:42:05;;;;;;;5.00;3.80;;;25.70;53.20;;;;;;5053799;28;20405;-66
2023/06/25 10:44:32;;;;;;;5.60;5.00;;;25.70;52.60;;;;;;5053725;28;20417;-65
2023/06/25 10:47:08;;;;;;;4.43;4.03;;;25.70;52.60;;;;;;5053643;28;20430;-65
2023/06/25 10:49:35;;;;;;;4.43;4.03;;;25.70;52.60;;;;;;5053285;28;20528;-67
2023/06/25 10:52:02;;;;;;;4.63;4.20;;;25.70;52.60;;;;;;5053438;28;20417;-67
2023/06/25 10:54:27;;;;;;;5.00;4.50;;;25.70;52.60;;;;;;5053103;28;20417;-66
2023/06/25 10:57:04;;;;;;;5.30;4.27;;;25.70;52.60;;;;;;5053278;28;20441;-66
2023/06/25 10:59:29;;;;;;;4.43;4.03;;;25.70;52.60;;;;;;5053273;28;20220;-67
2023/06/25 11:01:55;;;;;;;4.80;4.40;;;25.70;52.60;;;;;;5053181;28;20422;-67
2023/06/25 11:04:21;;;;;;;3.83;3.50;;;25.70;52.60;;;;;;5053428;28;20210;-67
2023/06/25 11:06:46;;;;;;;4.20;3.80;;;25.70;52.60;;;;;;5053064;28;20598;-66
2023/06/25 11:09:12;;;;;;;3.83;3.50;;;25.70;52.50;;;;;;5051133;28;20190;-67
2023/06/25 11:11:38;;;;;;;4.07;3.67;;;25.70;52.50;;;;;;5052394;28;20417;-68
2023/06/25 11:14:03;;;;;;;4.13;3.73;;;25.70;52.60;;;;;;5053015;28;20187;-67
2023/06/25 11:16:29;;;;;;;5.33;3.90;;;25.70;52.50;;;;;;5053191;28;20191;-67
2023/06/25 11:18:55;;;;;;;4.87;4.40;;;25.70;52.50;;;;;;5041011;28;20207;-66
2023/06/25 11:21:20;;;;;;;4.07;3.77;;;25.70;52.50;;;;;;5033263;28;20172;-67
2023/06/25 11:23:46;;;;;;;4.07;3.67;;;25.80;52.50;;;;;;5033378;28;20236;-65
2023/06/25 11:26:14;;;;;;;4.30;3.83;;;25.70;52.50;;;;;;5033143;28;20203;-67
2023/06/25 11:28:40;;;;;;;5.17;4.67;;;25.70;52.50;;;;;;5032868;28;20168;-67
2023/06/25 11:31:06;;;;;;;4.57;4.17;;;25.70;52.40;;;;;;5031894;28;20414;-65
2023/06/25 11:33:31;;;;;;;4.30;3.90;;;25.70;52.40;;;;;;5032162;28;20178;-67
2023/06/25 11:36:11;;;;;;;4.37;3.97;;;25.70;52.40;;;;;;5032532;28;20308;-66
2023/06/25 11:38:37;;;;;;;4.70;4.30;;;25.80;52.50;;;;;;5032568;28;20289;-66
2023/06/25 11:41:06;;;;;;;4.80;4.40;;;25.70;52.40;;;;;;5032622;28;20449;-66
2023/06/25 11:43:32;;;;;;;4.97;4.10;;;25.70;52.40;;;;;;5032538;28;20497;-66
2023/06/25 11:46:02;;;;;;;4.43;4.03;;;25.70;52.40;;;;;;5032337;28;20426;-67
2023/06/25 11:48:29;;;;;;;4.53;4.13;;;25.70;52.40;;;;;;5032446;28;20536;-67
2023/06/25 11:51:03;;;;;;;4.33;3.93;;;25.70;52.40;;;;;;5032232;28;20458;-66
2023/06/25 11:53:29;;;;;;;4.90;4.47;;;25.80;52.40;;;;;;5032376;28;20456;-66
2023/06/25 11:55:54;;;;;;;4.17;3.83;;;25.70;52.30;;;;;;5032173;28;20442;-66
2023/06/25 11:58:20;;;;;;;5.57;5.07;;;25.80;52.40;;;;;;5032211;28;20203;-66
2023/06/25 12:00:46;;;;;;;5.13;3.93;;;25.80;52.30;;;;;;5032253;28;20225;-67
2023/06/25 12:03:11;;;;;;;4.73;4.33;;;25.80;52.40;;;;;;5032193;28;20591;-66
2023/06/25 12:05:37;;;;;;;5.27;4.40;;;25.80;52.40;;;;;;5032112;28;20192;-66
2023/06/25 12:08:02;;;;;;;5.67;4.70;;;25.80;52.40;;;;;;5032078;28;20171;-65
2023/06/25 12:10:28;;;;;;;4.83;4.40;;;25.80;52.40;;;;;;5032406;28;20183;-66
2023/06/25 12:12:54;;;;;;;4.60;4.20;;;25.80;52.40;;;;;;5032071;28;20172;-66
2023/06/25 12:15:20;;;;;;;6.97;4.67;;;25.80;52.40;;;;;;5032254;28;20192;-66
2023/06/25 12:17:46;;;;;;;4.33;3.70;;;25.80;52.30;;;;;;5030736;28;20421;-66
2023/06/25 12:20:11;;;;;;;5.20;3.90;;;25.80;52.30;;;;;;5031990;28;20684;-65
2023/06/25 12:22:37;;;;;;;4.60;4.20;;;25.80;52.30;;;;;;5032211;28;20176;-65
2023/06/25 12:25:04;;;;;;;4.83;4.33;;;25.80;52.30;;;;;;5031905;28;20630;-66
2023/06/25 12:27:29;;;;;;;6.53;4.40;;;25.80;52.30;;;;;;5031890;28;20163;-65
2023/06/25 12:29:55;;;;;;;5.10;3.70;;;25.80;52.30;;;;;;5031930;28;20410;-67
2023/06/25 12:32:20;;;;;;;4.40;4.00;;;25.80;52.30;;;;;;5031937;28;20195;-67
2023/06/25 12:34:46;;;;;;;5.00;4.00;;;25.80;52.20;;;;;;5032116;28;20309;-66
2023/06/25 12:37:12;;;;;;;4.80;4.40;;;25.80;52.20;;;;;;5031837;28;20180;-65
2023/06/25 12:39:37;;;;;;;5.10;4.70;;;25.80;52.20;;;;;;5030492;28;20707;-66
2023/06/25 12:42:03;;;;;;;5.20;4.70;;;25.80;52.20;;;;;;5031785;28;20179;-65
2023/06/25 12:44:29;;;;;;;4.40;4.00;;;25.80;52.20;;;;;;5032689;28;20167;-65